PWSweather.com
Personal Weather Stations
Station Observations
S56IPS
Mostec 12, MostecSI 8257

Mostec 12MostecSI 8257

Lat: 45.899181, Lon: 15.628339

Elevation: 143

Station Type: WX-2008

Latest ConditionsUpdated 8:55:03 AM GMT+01:01 Wednesday, Oct 22, 2014
Currently Today's Max Today's Min Today's Average
Temperature 41.9°F5.5°C 60.4°F15.8°C 41.4°F5.2°C 49.0°F9.4°C
Dew Point 41.6°F5.3°C 60.2°F15.7°C 41.1°F5.1°C 48.8°F9.3°C
Winds 1.6 mph SE2.6 kmh SE 6.0 mph NW9.7 kmh NW - 1.1 mph 1.8 kmh
Wind Gusts 6.0 mph9.7 kmh 27.3 mph43.9 kmh - -
Humidity 99% 99% 99% 99%
Pressure 29.76 in1007.8 mb 29.76 in1007.8 mb 29.46 in997.6 mb -
Precipitation - 1.25 in31.8 mm - -
Hour Temp Dew Point Humidity Winds Wind Gusts Pressure Precip Precip Rate Daily Precip Total
08:55 AM 41.9°F5.5°C 41.6°F5.3°C 99% 1.6 mph SE2.6 kmh SE 6.0 mph9.7 kmh 29.76 in1007.8 mb 0.05 in1.3 mm 0.00 in/hr0.0 mm/hr 1.25 in31.8 mm
08:50 AM 41.7°F5.4°C 41.5°F5.3°C 99% 1.6 mph SE2.6 kmh SE 8.3 mph13.4 kmh 29.75 in1007.5 mb 0.05 in1.3 mm 0.12 in/hr3.0 mm/hr 1.25 in31.8 mm
08:45 AM 41.5°F5.3°C 41.3°F5.2°C 99% 2.2 mph SSE3.5 kmh SSE 9.2 mph14.8 kmh 29.75 in1007.5 mb 0.04 in1.0 mm 0.00 in/hr0.0 mm/hr 1.24 in31.5 mm
08:40 AM 41.7°F5.4°C 41.5°F5.3°C 99% 2.2 mph SSE3.5 kmh SSE 9.8 mph15.8 kmh 29.75 in1007.5 mb 0.04 in1.0 mm 0.00 in/hr0.0 mm/hr 1.24 in31.5 mm
08:35 AM 41.7°F5.4°C 41.5°F5.3°C 99% 2.2 mph SSE3.5 kmh SSE 9.8 mph15.8 kmh 29.75 in1007.5 mb 0.05 in1.3 mm 0.00 in/hr0.0 mm/hr 1.24 in31.5 mm
08:30 AM 41.7°F5.4°C 41.5°F5.3°C 99% 2.2 mph SE3.5 kmh SE 7.6 mph12.2 kmh 29.76 in1007.8 mb 0.05 in1.3 mm 0.00 in/hr0.0 mm/hr 1.24 in31.5 mm
08:25 AM 41.9°F5.5°C 41.6°F5.3°C 99% 3.8 mph SE6.1 kmh SE 6.9 mph11.1 kmh 29.75 in1007.5 mb 0.06 in1.5 mm 0.12 in/hr3.0 mm/hr 1.24 in31.5 mm
08:20 AM 41.9°F5.5°C 41.6°F5.3°C 99% 1.6 mph SE2.6 kmh SE 3.8 mph6.1 kmh 29.76 in1007.8 mb 0.05 in1.3 mm 0.00 in/hr0.0 mm/hr 1.23 in31.2 mm
08:15 AM 41.7°F5.4°C 41.5°F5.3°C 99% 1.6 mph S2.6 kmh S 3.1 mph5.0 kmh 29.75 in1007.5 mb 0.06 in1.5 mm 0.00 in/hr0.0 mm/hr 1.23 in31.2 mm
08:10 AM 41.7°F5.4°C 41.5°F5.3°C 99% 1.6 mph SSE2.6 kmh SSE 3.1 mph5.0 kmh 29.75 in1007.5 mb 0.06 in1.5 mm 0.00 in/hr0.0 mm/hr 1.22 in31.0 mm
08:05 AM 41.5°F5.3°C 41.3°F5.2°C 99% 0.7 mph SSE1.1 kmh SSE 3.1 mph5.0 kmh 29.75 in1007.5 mb 0.07 in1.8 mm 0.00 in/hr0.0 mm/hr 1.22 in31.0 mm
08:00 AM 41.4°F5.2°C 41.1°F5.1°C 99% Calm Calm 1.6 mph2.6 kmh 29.75 in1007.5 mb 0.07 in1.8 mm 0.00 in/hr0.0 mm/hr 1.20 in30.5 mm
07:55 AM 41.5°F5.3°C 41.3°F5.2°C 99% Calm Calm 3.1 mph5.0 kmh 29.75 in1007.5 mb 0.08 in2.0 mm 0.00 in/hr0.0 mm/hr 1.20 in30.5 mm
07:50 AM 41.9°F5.5°C 41.6°F5.3°C 99% Calm Calm 3.1 mph5.0 kmh 29.75 in1007.5 mb 0.09 in2.3 mm 0.00 in/hr0.0 mm/hr 1.20 in30.5 mm
07:45 AM 42.1°F5.6°C 41.8°F5.4°C 99% 1.6 mph SE2.6 kmh SE 3.1 mph5.0 kmh 29.75 in1007.5 mb 0.09 in2.3 mm 0.00 in/hr0.0 mm/hr 1.20 in30.5 mm
07:40 AM 42.3°F5.7°C 42.0°F5.6°C 99% Calm Calm 2.2 mph3.5 kmh 29.75 in1007.5 mb 0.11 in2.8 mm 0.00 in/hr0.0 mm/hr 1.20 in30.5 mm
07:35 AM 42.4°F5.8°C 42.2°F5.7°C 99% Calm Calm 2.2 mph3.5 kmh 29.75 in1007.5 mb 0.11 in2.8 mm 0.00 in/hr0.0 mm/hr 1.19 in30.2 mm
07:30 AM 42.3°F5.7°C 42.0°F5.6°C 99% Calm Calm 1.6 mph2.6 kmh 29.75 in1007.5 mb 0.12 in3.0 mm 0.00 in/hr0.0 mm/hr 1.19 in30.2 mm
07:25 AM 42.4°F5.8°C 42.2°F5.7°C 99% 0.7 mph S1.1 kmh S 1.6 mph2.6 kmh 29.75 in1007.5 mb 0.12 in3.0 mm 0.00 in/hr0.0 mm/hr 1.18 in30.0 mm
07:20 AM 42.4°F5.8°C 42.2°F5.7°C 99% Calm Calm 1.6 mph2.6 kmh 29.75 in1007.5 mb 0.13 in3.3 mm 0.00 in/hr0.0 mm/hr 1.18 in30.0 mm
07:15 AM 42.6°F5.9°C 42.4°F5.8°C 99% Calm Calm -- 29.75 in1007.5 mb 0.14 in3.6 mm 0.00 in/hr0.0 mm/hr 1.17 in29.7 mm
07:10 AM 42.4°F5.8°C 42.2°F5.7°C 99% Calm Calm -- 29.76 in1007.8 mb 0.14 in3.6 mm 0.00 in/hr0.0 mm/hr 1.16 in29.5 mm
07:05 AM 42.4°F5.8°C 42.2°F5.7°C 99% Calm Calm -- 29.76 in1007.8 mb 0.14 in3.6 mm 0.00 in/hr0.0 mm/hr 1.15 in29.2 mm
07:00 AM 42.4°F5.8°C 42.2°F5.7°C 99% Calm Calm 1.6 mph2.6 kmh 29.76 in1007.8 mb 0.14 in3.6 mm 0.01 in/hr0.3 mm/hr 1.13 in28.7 mm
06:55 AM 42.4°F5.8°C 42.2°F5.7°C 99% Calm Calm 1.6 mph2.6 kmh 29.75 in1007.5 mb 0.13 in3.3 mm 0.00 in/hr0.0 mm/hr 1.12 in28.4 mm
06:50 AM 42.4°F5.8°C 42.2°F5.7°C 99% Calm Calm 1.6 mph2.6 kmh 29.74 in1007.1 mb 0.13 in3.3 mm 0.00 in/hr0.0 mm/hr 1.11 in28.2 mm
06:45 AM 42.4°F5.8°C 42.2°F5.7°C 99% 0.7 mph W1.1 kmh W 2.2 mph3.5 kmh 29.73 in1006.8 mb 0.14 in3.6 mm 0.00 in/hr0.0 mm/hr 1.11 in28.2 mm
06:40 AM 42.6°F5.9°C 42.4°F5.8°C 99% Calm Calm 2.2 mph3.5 kmh 29.73 in1006.8 mb 0.14 in3.6 mm 0.00 in/hr0.0 mm/hr 1.10 in27.9 mm
06:35 AM 42.8°F6.0°C 42.5°F5.8°C 99% Calm Calm 3.1 mph5.0 kmh 29.73 in1006.8 mb 0.14 in3.6 mm 0.00 in/hr0.0 mm/hr 1.09 in27.7 mm
06:30 AM 42.8°F6.0°C 42.5°F5.8°C 99% 0.7 mph N1.1 kmh N 3.1 mph5.0 kmh 29.74 in1007.1 mb 0.14 in3.6 mm 0.00 in/hr0.0 mm/hr 1.07 in27.2 mm
06:25 AM 43.0°F6.1°C 42.7°F5.9°C 99% Calm Calm 3.1 mph5.0 kmh 29.74 in1007.1 mb 0.14 in3.6 mm 0.00 in/hr0.0 mm/hr 1.05 in26.7 mm
06:20 AM 43.0°F6.1°C 42.7°F5.9°C 99% 1.6 mph WNW2.6 kmh WNW 3.1 mph5.0 kmh 29.74 in1007.1 mb 0.14 in3.6 mm 0.00 in/hr0.0 mm/hr 1.04 in26.4 mm
06:15 AM 43.0°F6.1°C 42.7°F5.9°C 99% Calm Calm 3.1 mph5.0 kmh 29.74 in1007.1 mb 0.14 in3.6 mm 0.00 in/hr0.0 mm/hr 1.03 in26.2 mm
06:10 AM 43.3°F6.3°C 43.1°F6.2°C 99% 1.6 mph NW2.6 kmh NW 3.1 mph5.0 kmh 29.73 in1006.8 mb 0.15 in3.8 mm 0.00 in/hr0.0 mm/hr 1.02 in25.9 mm
06:05 AM 43.5°F6.4°C 43.3°F6.3°C 99% 1.6 mph NNW2.6 kmh NNW 3.1 mph5.0 kmh 29.73 in1006.8 mb 0.17 in4.3 mm 0.00 in/hr0.0 mm/hr 1.00 in25.4 mm
06:00 AM 43.9°F6.6°C 43.6°F6.4°C 99% 0.7 mph NNE1.1 kmh NNE 6.0 mph9.7 kmh 29.73 in1006.8 mb 0.18 in4.6 mm 0.00 in/hr0.0 mm/hr 0.99 in25.1 mm
05:55 AM 44.1°F6.7°C 43.8°F6.6°C 99% 1.6 mph NNE2.6 kmh NNE 6.0 mph9.7 kmh 29.73 in1006.8 mb 0.19 in4.8 mm 0.00 in/hr0.0 mm/hr 0.99 in25.1 mm
05:50 AM 44.4°F6.9°C 44.2°F6.8°C 99% Calm Calm 2.2 mph3.5 kmh 29.71 in1006.1 mb 0.19 in4.8 mm 0.00 in/hr0.0 mm/hr 0.98 in24.9 mm
05:45 AM 44.4°F6.9°C 44.2°F6.8°C 99% Calm Calm 2.2 mph3.5 kmh 29.72 in1006.4 mb 0.19 in4.8 mm 0.12 in/hr3.0 mm/hr 0.97 in24.6 mm
05:40 AM 44.4°F6.9°C 44.2°F6.8°C 99% Calm Calm 3.1 mph5.0 kmh 29.71 in1006.1 mb 0.18 in4.6 mm 0.00 in/hr0.0 mm/hr 0.94 in23.9 mm
05:35 AM 44.4°F6.9°C 44.2°F6.8°C 99% Calm Calm 3.1 mph5.0 kmh 29.71 in1006.1 mb 0.18 in4.6 mm 0.00 in/hr0.0 mm/hr 0.93 in23.6 mm
05:30 AM 44.4°F6.9°C 44.2°F6.8°C 99% 0.7 mph NW1.1 kmh NW 4.5 mph7.2 kmh 29.72 in1006.4 mb 0.18 in4.6 mm 0.00 in/hr0.0 mm/hr 0.92 in23.4 mm
05:25 AM 44.8°F7.1°C 44.5°F6.9°C 99% Calm Calm 4.5 mph7.2 kmh 29.71 in1006.1 mb 0.19 in4.8 mm 0.00 in/hr0.0 mm/hr 0.91 in23.1 mm
05:20 AM 45.0°F7.2°C 44.7°F7.1°C 99% 0.7 mph NW1.1 kmh NW 3.8 mph6.1 kmh 29.71 in1006.1 mb 0.19 in4.8 mm 0.00 in/hr0.0 mm/hr 0.90 in22.9 mm
05:15 AM 45.1°F7.3°C 44.9°F7.2°C 99% Calm Calm 3.8 mph6.1 kmh 29.70 in1005.8 mb 0.20 in5.1 mm 0.12 in/hr3.0 mm/hr 0.89 in22.6 mm
05:10 AM 45.3°F7.4°C 45.1°F7.3°C 99% 0.7 mph NW1.1 kmh NW 3.1 mph5.0 kmh 29.69 in1005.4 mb 0.19 in4.8 mm 0.00 in/hr0.0 mm/hr 0.86 in21.8 mm
05:05 AM 45.3°F7.4°C 45.1°F7.3°C 99% 1.6 mph W2.6 kmh W 3.1 mph5.0 kmh 29.69 in1005.4 mb 0.19 in4.8 mm 0.12 in/hr3.0 mm/hr 0.84 in21.3 mm
05:00 AM 45.5°F7.5°C 45.2°F7.3°C 99% 0.7 mph W1.1 kmh W 3.1 mph5.0 kmh 29.70 in1005.8 mb 0.18 in4.6 mm 0.01 in/hr0.3 mm/hr 0.81 in20.6 mm
04:55 AM 45.5°F7.5°C 45.2°F7.3°C 99% Calm Calm 3.1 mph5.0 kmh 29.69 in1005.4 mb 0.17 in4.3 mm 0.00 in/hr0.0 mm/hr 0.80 in20.3 mm
04:50 AM 45.7°F7.6°C 45.4°F7.4°C 99% Calm Calm 3.8 mph6.1 kmh 29.69 in1005.4 mb 0.17 in4.3 mm 0.24 in/hr6.1 mm/hr 0.79 in20.1 mm
04:45 AM 45.9°F7.7°C 45.6°F7.6°C 99% 0.7 mph NW1.1 kmh NW 3.8 mph6.1 kmh 29.68 in1005.1 mb 0.15 in3.8 mm 0.12 in/hr3.0 mm/hr 0.78 in19.8 mm
04:40 AM 45.9°F7.7°C 45.6°F7.6°C 99% 1.6 mph NW2.6 kmh NW 5.4 mph8.7 kmh 29.66 in1004.4 mb 0.14 in3.6 mm 0.00 in/hr0.0 mm/hr 0.77 in19.6 mm
04:35 AM 46.0°F7.8°C 45.8°F7.7°C 99% 0.7 mph WNW1.1 kmh WNW 5.4 mph8.7 kmh 29.65 in1004.1 mb 0.14 in3.6 mm 0.00 in/hr0.0 mm/hr 0.76 in19.3 mm
04:30 AM 46.4°F8.0°C 46.1°F7.8°C 99% 1.6 mph NW2.6 kmh NW 5.4 mph8.7 kmh 29.64 in1003.7 mb 0.14 in3.6 mm 0.00 in/hr0.0 mm/hr 0.74 in18.8 mm
04:25 AM 46.6°F8.1°C 46.3°F7.9°C 99% 1.6 mph E2.6 kmh E 6.0 mph9.7 kmh 29.64 in1003.7 mb 0.14 in3.6 mm 0.00 in/hr0.0 mm/hr 0.72 in18.3 mm
04:20 AM 46.8°F8.2°C 46.5°F8.1°C 99% 0.7 mph E1.1 kmh E 6.0 mph9.7 kmh 29.65 in1004.1 mb 0.15 in3.8 mm 0.00 in/hr0.0 mm/hr 0.71 in18.0 mm
04:15 AM 47.1°F8.4°C 46.9°F8.3°C 99% Calm Calm 3.8 mph6.1 kmh 29.65 in1004.1 mb 0.15 in3.8 mm 0.00 in/hr0.0 mm/hr 0.69 in17.5 mm
04:10 AM 47.1°F8.4°C 46.9°F8.3°C 99% Calm Calm 4.5 mph7.2 kmh 29.65 in1004.1 mb 0.15 in3.8 mm 0.12 in/hr3.0 mm/hr 0.67 in17.0 mm
04:05 AM 47.3°F8.5°C 47.0°F8.3°C 99% 2.2 mph SE3.5 kmh SE 4.5 mph7.2 kmh 29.64 in1003.7 mb 0.14 in3.6 mm 0.12 in/hr3.0 mm/hr 0.65 in16.5 mm
04:00 AM 47.3°F8.5°C 47.0°F8.3°C 99% 2.2 mph E3.5 kmh E 7.6 mph12.2 kmh 29.64 in1003.7 mb 0.13 in3.3 mm 0.00 in/hr0.0 mm/hr 0.64 in16.3 mm
03:55 AM 47.5°F8.6°C 47.2°F8.4°C 99% 0.7 mph ESE1.1 kmh ESE 7.6 mph12.2 kmh 29.63 in1003.4 mb 0.14 in3.6 mm 0.00 in/hr0.0 mm/hr 0.64 in16.3 mm
03:50 AM 47.8°F8.8°C 47.6°F8.7°C 99% 0.7 mph ENE1.1 kmh ENE 3.1 mph5.0 kmh 29.61 in1002.7 mb 0.14 in3.6 mm 0.00 in/hr0.0 mm/hr 0.63 in16.0 mm
03:45 AM 48.0°F8.9°C 47.8°F8.8°C 99% 0.7 mph NE1.1 kmh NE 5.4 mph8.7 kmh 29.61 in1002.7 mb 0.15 in3.8 mm 0.00 in/hr0.0 mm/hr 0.63 in16.0 mm
03:40 AM 48.2°F9.0°C 47.9°F8.8°C 99% Calm Calm 5.4 mph8.7 kmh 29.60 in1002.4 mb 0.15 in3.8 mm 0.00 in/hr0.0 mm/hr 0.63 in16.0 mm
03:35 AM 48.4°F9.1°C 48.1°F8.9°C 99% 0.7 mph ESE1.1 kmh ESE 4.5 mph7.2 kmh 29.60 in1002.4 mb 0.15 in3.8 mm 0.00 in/hr0.0 mm/hr 0.61 in15.5 mm
03:30 AM 48.6°F9.2°C 48.3°F9.1°C 99% 0.7 mph ESE1.1 kmh ESE 4.5 mph7.2 kmh 29.61 in1002.7 mb 0.15 in3.8 mm 0.00 in/hr0.0 mm/hr 0.60 in15.2 mm
03:25 AM 48.6°F9.2°C 48.3°F9.1°C 99% 1.6 mph ENE2.6 kmh ENE 4.5 mph7.2 kmh 29.60 in1002.4 mb 0.20 in5.1 mm 0.00 in/hr0.0 mm/hr 0.58 in14.7 mm
03:20 AM 48.7°F9.3°C 48.5°F9.2°C 99% 0.7 mph ESE1.1 kmh ESE 5.4 mph8.7 kmh 29.62 in1003.0 mb 0.21 in5.3 mm 0.00 in/hr0.0 mm/hr 0.56 in14.2 mm
03:15 AM 48.7°F9.3°C 48.5°F9.2°C 99% 0.7 mph ESE1.1 kmh ESE 5.4 mph8.7 kmh 29.62 in1003.0 mb 0.21 in5.3 mm 0.00 in/hr0.0 mm/hr 0.53 in13.5 mm
03:10 AM 48.9°F9.4°C 48.7°F9.3°C 99% 1.6 mph NW2.6 kmh NW 5.4 mph8.7 kmh 29.61 in1002.7 mb 0.24 in6.1 mm 0.00 in/hr0.0 mm/hr 0.52 in13.2 mm
03:05 AM 49.1°F9.5°C 48.8°F9.3°C 99% Calm Calm 6.0 mph9.7 kmh 29.61 in1002.7 mb 0.24 in6.1 mm 0.00 in/hr0.0 mm/hr 0.51 in13.0 mm
03:00 AM 49.3°F9.6°C 49.0°F9.4°C 99% 0.7 mph WSW1.1 kmh WSW 9.2 mph14.8 kmh 29.60 in1002.4 mb 0.24 in6.1 mm 0.00 in/hr0.0 mm/hr 0.51 in13.0 mm
02:55 AM 49.5°F9.7°C 49.2°F9.6°C 99% 1.6 mph SW2.6 kmh SW 9.2 mph14.8 kmh 29.60 in1002.4 mb 0.27 in6.9 mm 0.00 in/hr0.0 mm/hr 0.50 in12.7 mm
02:50 AM 49.6°F9.8°C 49.4°F9.7°C 99% 4.5 mph WSW7.2 kmh WSW 10.7 mph17.2 kmh 29.59 in1002.0 mb 0.32 in8.1 mm 0.00 in/hr0.0 mm/hr 0.48 in12.2 mm
02:45 AM 49.8°F9.9°C 49.6°F9.8°C 99% 6.0 mph NW9.7 kmh NW 10.7 mph17.2 kmh 29.56 in1001.0 mb 0.34 in8.6 mm 0.00 in/hr0.0 mm/hr 0.47 in11.9 mm
02:40 AM 50.4°F10.2°C 50.1°F10.1°C 99% 3.8 mph NW6.1 kmh NW 13.0 mph20.9 kmh 29.57 in1001.4 mb 0.35 in8.9 mm 0.00 in/hr0.0 mm/hr 0.47 in11.9 mm
02:35 AM 50.9°F10.5°C 50.6°F10.3°C 99% 5.4 mph SW8.7 kmh SW 27.3 mph43.9 kmh 29.55 in1000.7 mb 0.35 in8.9 mm 0.00 in/hr0.0 mm/hr 0.46 in11.7 mm
02:30 AM 52.3°F11.3°C 52.1°F11.2°C 99% 3.8 mph NW6.1 kmh NW 27.3 mph43.9 kmh 29.54 in1000.3 mb 0.35 in8.9 mm 0.60 in/hr15.2 mm/hr 0.45 in11.4 mm
02:25 AM 56.7°F13.7°C 56.4°F13.6°C 99% 3.8 mph NNW6.1 kmh NNW 17.4 mph28.0 kmh 29.55 in1000.7 mb 0.30 in7.6 mm 0.48 in/hr12.2 mm/hr 0.38 in9.7 mm
02:20 AM 59.4°F15.2°C 59.1°F15.1°C 99% 0.7 mph NW1.1 kmh NW 3.8 mph6.1 kmh 29.53 in1000.0 mb 0.26 in6.6 mm 0.12 in/hr3.0 mm/hr 0.33 in8.4 mm
02:15 AM 59.4°F15.2°C 59.1°F15.1°C 99% Calm Calm 4.5 mph7.2 kmh 29.51 in999.3 mb 0.25 in6.4 mm 0.48 in/hr12.2 mm/hr 0.32 in8.1 mm
02:10 AM 59.4°F15.2°C 59.1°F15.1°C 99% 0.7 mph WSW1.1 kmh WSW 4.5 mph7.2 kmh 29.50 in999.0 mb 0.21 in5.3 mm 0.00 in/hr0.0 mm/hr 0.28 in7.1 mm
02:05 AM 59.4°F15.2°C 59.1°F15.1°C 99% 1.6 mph SSW2.6 kmh SSW 3.8 mph6.1 kmh 29.50 in999.0 mb 0.21 in5.3 mm 0.00 in/hr0.0 mm/hr 0.27 in6.9 mm
02:00 AM 59.4°F15.2°C 59.1°F15.1°C 99% 0.7 mph SE1.1 kmh SE 3.8 mph6.1 kmh 29.49 in998.6 mb 0.21 in5.3 mm 0.04 in/hr1.0 mm/hr 0.27 in6.9 mm
01:55 AM 59.5°F15.3°C 59.3°F15.2°C 99% 1.6 mph E2.6 kmh E 3.1 mph5.0 kmh 29.47 in998.0 mb 0.17 in4.3 mm 0.72 in/hr18.3 mm/hr 0.22 in5.6 mm
01:50 AM 59.5°F15.3°C 59.3°F15.2°C 99% Calm Calm 4.5 mph7.2 kmh 29.48 in998.3 mb 0.11 in2.8 mm 0.48 in/hr12.2 mm/hr 0.17 in4.3 mm
01:45 AM 59.5°F15.3°C 59.3°F15.2°C 99% Calm Calm 5.4 mph8.7 kmh 29.47 in998.0 mb 0.07 in1.8 mm 0.12 in/hr3.0 mm/hr 0.13 in3.3 mm
01:40 AM 59.5°F15.3°C 59.3°F15.2°C 99% 0.7 mph ENE1.1 kmh ENE 5.4 mph8.7 kmh 29.46 in997.6 mb 0.06 in1.5 mm 0.12 in/hr3.0 mm/hr 0.12 in3.0 mm
01:35 AM 59.5°F15.3°C 59.3°F15.2°C 99% 0.7 mph N1.1 kmh N 4.5 mph7.2 kmh 29.46 in997.6 mb 0.05 in1.3 mm 0.00 in/hr0.0 mm/hr 0.11 in2.8 mm
01:30 AM 59.5°F15.3°C 59.3°F15.2°C 99% 0.7 mph N1.1 kmh N 3.8 mph6.1 kmh 29.47 in998.0 mb 0.07 in1.8 mm 0.12 in/hr3.0 mm/hr 0.09 in2.3 mm
01:25 AM 59.5°F15.3°C 59.3°F15.2°C 99% 0.7 mph N1.1 kmh N 3.8 mph6.1 kmh 29.47 in998.0 mb 0.06 in1.5 mm 0.00 in/hr0.0 mm/hr 0.08 in2.0 mm
01:20 AM 59.5°F15.3°C 59.3°F15.2°C 99% Calm Calm 3.1 mph5.0 kmh 29.47 in998.0 mb 0.06 in1.5 mm 0.00 in/hr0.0 mm/hr 0.07 in1.8 mm
01:15 AM 59.7°F15.4°C 59.5°F15.3°C 99% 0.7 mph E1.1 kmh E 4.5 mph7.2 kmh 29.47 in998.0 mb 0.06 in1.5 mm 0.00 in/hr0.0 mm/hr 0.07 in1.8 mm
01:10 AM 59.7°F15.4°C 59.5°F15.3°C 99% 0.7 mph E1.1 kmh E 4.5 mph7.2 kmh 29.47 in998.0 mb 0.06 in1.5 mm 0.12 in/hr3.0 mm/hr 0.07 in1.8 mm
01:05 AM 59.7°F15.4°C 59.5°F15.3°C 99% 1.6 mph SE2.6 kmh SE 6.9 mph11.1 kmh 29.47 in998.0 mb 0.05 in1.3 mm 0.00 in/hr0.0 mm/hr 0.06 in1.5 mm
01:00 AM 59.9°F15.5°C 59.6°F15.3°C 99% 1.6 mph SE2.6 kmh SE 6.9 mph11.1 kmh 29.47 in998.0 mb 0.06 in1.5 mm 0.00 in/hr0.0 mm/hr 0.06 in1.5 mm
12:55 AM 59.9°F15.5°C 59.6°F15.3°C 99% 1.6 mph SE2.6 kmh SE 6.9 mph11.1 kmh 29.48 in998.3 mb 0.06 in1.5 mm 0.00 in/hr0.0 mm/hr 0.06 in1.5 mm
12:50 AM 59.9°F15.5°C 59.6°F15.3°C 99% 2.2 mph SE3.5 kmh SE 6.9 mph11.1 kmh 29.48 in998.3 mb 0.06 in1.5 mm 0.00 in/hr0.0 mm/hr 0.06 in1.5 mm
12:45 AM 60.1°F15.6°C 59.8°F15.4°C 99% 1.6 mph SE2.6 kmh SE 6.9 mph11.1 kmh 29.48 in998.3 mb 0.06 in1.5 mm 0.00 in/hr0.0 mm/hr 0.06 in1.5 mm
12:40 AM 60.3°F15.7°C 60.0°F15.6°C 99% 2.2 mph ESE3.5 kmh ESE 6.9 mph11.1 kmh 29.49 in998.6 mb 0.06 in1.5 mm 0.00 in/hr0.0 mm/hr 0.06 in1.5 mm
12:35 AM 60.3°F15.7°C 60.0°F15.6°C 99% 0.7 mph SE1.1 kmh SE 6.9 mph11.1 kmh 29.49 in998.6 mb 0.06 in1.5 mm 0.48 in/hr12.2 mm/hr 0.06 in1.5 mm
12:30 AM 60.3°F15.7°C 60.0°F15.6°C 99% 2.2 mph SE3.5 kmh SE 6.0 mph9.7 kmh 29.50 in999.0 mb 0.02 in0.5 mm 0.12 in/hr3.0 mm/hr 0.02 in0.5 mm
12:25 AM 60.3°F15.7°C 60.0°F15.6°C 99% Calm Calm 5.4 mph8.7 kmh 29.50 in999.0 mb 0.01 in0.3 mm 0.00 in/hr0.0 mm/hr 0.01 in0.3 mm
12:20 AM 60.3°F15.7°C 60.0°F15.6°C 99% 2.2 mph ESE3.5 kmh ESE 5.4 mph8.7 kmh 29.49 in998.6 mb 0.01 in0.3 mm 0.00 in/hr0.0 mm/hr 0.01 in0.3 mm
12:15 AM 60.3°F15.7°C 60.0°F15.6°C 99% 1.6 mph SE2.6 kmh SE 6.0 mph9.7 kmh 29.50 in999.0 mb 0.01 in0.3 mm 0.00 in/hr0.0 mm/hr 0.01 in0.3 mm
12:10 AM 60.4°F15.8°C 60.2°F15.7°C 99% 1.6 mph ESE2.6 kmh ESE 6.0 mph9.7 kmh 29.49 in998.6 mb 0.01 in0.3 mm 0.00 in/hr0.0 mm/hr 0.01 in0.3 mm
12:05 AM 60.4°F15.8°C 60.2°F15.7°C 99% 2.2 mph SE3.5 kmh SE 6.9 mph11.1 kmh 29.50 in999.0 mb 0.01 in0.3 mm 0.12 in/hr3.0 mm/hr 0.01 in0.3 mm
12:00 AM 60.4°F15.8°C 60.2°F15.7°C 99% 1.6 mph SE2.6 kmh SE 11.4 mph18.3 kmh 29.51 in999.3 mb 0.00 in0.0 mm 0.00 in/hr0.0 mm/hr 0.00 in0.0 mm